sensor_id;sensor_type;location;lat;lon;timestamp;P1;durP1;ratioP1;P2;durP2;ratioP2
75189;SDS011;69198;44.694;37.790;2023-05-07T00:00:01;11.45;;;3.45;;
75189;SDS011;69198;44.694;37.790;2023-05-07T00:01:05;9.65;;;3.58;;
75189;SDS011;69198;44.694;37.790;2023-05-07T00:02:06;12.15;;;3.45;;
75189;SDS011;69198;44.694;37.790;2023-05-07T00:03:07;8.93;;;3.50;;
75189;SDS011;69198;44.694;37.790;2023-05-07T00:04:08;10.50;;;3.20;;
75189;SDS011;69198;44.694;37.790;2023-05-07T00:05:10;13.30;;;3.53;;
75189;SDS011;69198;44.694;37.790;2023-05-07T00:06:11;11.80;;;3.38;;
75189;SDS011;69198;44.694;37.790;2023-05-07T00:07:12;9.52;;;2.50;;
75189;SDS011;69198;44.694;37.790;2023-05-07T00:08:13;13.45;;;3.88;;
75189;SDS011;69198;44.694;37.790;2023-05-07T00:09:14;11.10;;;4.07;;
75189;SDS011;69198;44.694;37.790;2023-05-07T00:10:16;13.07;;;3.10;;
75189;SDS011;69198;44.694;37.790;2023-05-07T00:11:17;13.37;;;3.30;;
75189;SDS011;69198;44.694;37.790;2023-05-07T00:12:18;9.80;;;3.00;;
75189;SDS011;69198;44.694;37.790;2023-05-07T00:13:19;11.88;;;3.28;;
75189;SDS011;69198;44.694;37.790;2023-05-07T00:14:20;10.02;;;4.30;;
75189;SDS011;69198;44.694;37.790;2023-05-07T00:15:21;8.27;;;3.60;;
75189;SDS011;69198;44.694;37.790;2023-05-07T00:16:22;9.50;;;3.08;;
75189;SDS011;69198;44.694;37.790;2023-05-07T00:17:23;10.57;;;3.30;;
75189;SDS011;69198;44.694;37.790;2023-05-07T00:18:24;10.60;;;3.00;;
75189;SDS011;69198;44.694;37.790;2023-05-07T00:19:25;12.18;;;3.35;;
75189;SDS011;69198;44.694;37.790;2023-05-07T00:20:26;9.88;;;3.50;;
75189;SDS011;69198;44.694;37.790;2023-05-07T00:21:27;10.15;;;2.80;;
75189;SDS011;69198;44.694;37.790;2023-05-07T00:22:28;10.68;;;2.92;;
75189;SDS011;69198;44.694;37.790;2023-05-07T00:23:30;8.88;;;2.90;;
75189;SDS011;69198;44.694;37.790;2023-05-07T00:24:31;14.70;;;3.60;;
75189;SDS011;69198;44.694;37.790;2023-05-07T00:25:32;14.53;;;3.70;;
75189;SDS011;69198;44.694;37.790;2023-05-07T00:26:33;15.25;;;3.55;;
75189;SDS011;69198;44.694;37.790;2023-05-07T00:27:34;10.40;;;2.83;;
75189;SDS011;69198;44.694;37.790;2023-05-07T00:28:35;15.45;;;3.90;;
75189;SDS011;69198;44.694;37.790;2023-05-07T00:29:36;12.98;;;3.47;;
75189;SDS011;69198;44.694;37.790;2023-05-07T00:30:37;11.90;;;3.42;;
75189;SDS011;69198;44.694;37.790;2023-05-07T00:31:38;12.90;;;3.72;;
75189;SDS011;69198;44.694;37.790;2023-05-07T00:32:39;14.70;;;3.50;;
75189;SDS011;69198;44.694;37.790;2023-05-07T00:33:40;9.98;;;3.15;;
75189;SDS011;69198;44.694;37.790;2023-05-07T00:34:42;9.90;;;2.93;;
75189;SDS011;69198;44.694;37.790;2023-05-07T00:35:44;8.73;;;3.20;;
75189;SDS011;69198;44.694;37.790;2023-05-07T00:36:44;13.77;;;3.45;;
75189;SDS011;69198;44.694;37.790;2023-05-07T00:37:46;12.70;;;3.30;;
75189;SDS011;69198;44.694;37.790;2023-05-07T00:38:48;9.77;;;3.25;;
75189;SDS011;69198;44.694;37.790;2023-05-07T00:39:49;14.07;;;3.95;;
75189;SDS011;69198;44.694;37.790;2023-05-07T00:40:50;12.13;;;3.13;;
75189;SDS011;69198;44.694;37.790;2023-05-07T00:41:51;10.82;;;3.08;;
75189;SDS011;69198;44.694;37.790;2023-05-07T00:42:52;12.47;;;3.40;;
75189;SDS011;69198;44.694;37.790;2023-05-07T00:43:58;12.18;;;3.38;;
75189;SDS011;69198;44.694;37.790;2023-05-07T00:44:59;10.70;;;3.58;;
75189;SDS011;69198;44.694;37.790;2023-05-07T00:46:00;9.40;;;3.30;;
75189;SDS011;69198;44.694;37.790;2023-05-07T00:47:02;9.98;;;3.70;;
75189;SDS011;69198;44.694;37.790;2023-05-07T00:48:05;13.82;;;4.28;;
75189;SDS011;69198;44.694;37.790;2023-05-07T00:49:06;9.52;;;3.90;;
75189;SDS011;69198;44.694;37.790;2023-05-07T00:50:07;9.13;;;3.85;;
75189;SDS011;69198;44.694;37.790;2023-05-07T00:51:11;7.97;;;3.90;;
75189;SDS011;69198;44.694;37.790;2023-05-07T00:52:15;8.38;;;4.00;;
75189;SDS011;69198;44.694;37.790;2023-05-07T00:53:17;9.50;;;4.10;;
75189;SDS011;69198;44.694;37.790;2023-05-07T00:54:18;12.15;;;4.35;;
75189;SDS011;69198;44.694;37.790;2023-05-07T00:55:22;11.32;;;4.90;;
75189;SDS011;69198;44.694;37.790;2023-05-07T00:56:23;9.90;;;4.47;;
75189;SDS011;69198;44.694;37.790;2023-05-07T00:57:25;16.08;;;4.80;;
75189;SDS011;69198;44.694;37.790;2023-05-07T00:58:26;11.00;;;4.97;;
75189;SDS011;69198;44.694;37.790;2023-05-07T00:59:27;10.82;;;4.05;;
75189;SDS011;69198;44.694;37.790;2023-05-07T01:00:28;10.38;;;4.43;;
75189;SDS011;69198;44.694;37.790;2023-05-07T01:01:30;8.90;;;3.58;;
75189;SDS011;69198;44.694;37.790;2023-05-07T01:02:32;10.87;;;4.37;;
75189;SDS011;69198;44.694;37.790;2023-05-07T01:03:33;10.82;;;3.95;;
75189;SDS011;69198;44.694;37.790;2023-05-07T01:04:34;10.18;;;3.90;;
75189;SDS011;69198;44.694;37.790;2023-05-07T01:05:35;9.27;;;4.05;;
75189;SDS011;69198;44.694;37.790;2023-05-07T01:06:36;10.38;;;4.00;;
75189;SDS011;69198;44.694;37.790;2023-05-07T01:07:41;10.75;;;4.20;;
75189;SDS011;69198;44.694;37.790;2023-05-07T01:08:43;12.00;;;3.55;;
75189;SDS011;69198;44.694;37.790;2023-05-07T01:09:45;10.50;;;4.07;;
75189;SDS011;69198;44.694;37.790;2023-05-07T01:10:46;8.45;;;2.80;;
75189;SDS011;69198;44.694;37.790;2023-05-07T01:11:47;11.43;;;2.90;;
75189;SDS011;69198;44.694;37.790;2023-05-07T01:12:50;13.03;;;3.30;;
75189;SDS011;69198;44.694;37.790;2023-05-07T01:13:54;10.05;;;3.22;;
75189;SDS011;69198;44.694;37.790;2023-05-07T01:14:55;8.43;;;2.45;;
75189;SDS011;69198;44.694;37.790;2023-05-07T01:15:57;10.05;;;2.40;;
75189;SDS011;69198;44.694;37.790;2023-05-07T01:16:58;9.38;;;2.80;;
75189;SDS011;69198;44.694;37.790;2023-05-07T01:18:00;7.20;;;2.33;;
75189;SDS011;69198;44.694;37.790;2023-05-07T01:19:06;7.00;;;2.65;;
75189;SDS011;69198;44.694;37.790;2023-05-07T01:20:08;7.28;;;2.47;;
75189;SDS011;69198;44.694;37.790;2023-05-07T01:21:15;7.07;;;2.63;;
75189;SDS011;69198;44.694;37.790;2023-05-07T01:22:34;8.32;;;3.00;;
75189;SDS011;69198;44.694;37.790;2023-05-07T01:23:39;8.90;;;3.03;;
75189;SDS011;69198;44.694;37.790;2023-05-07T01:24:41;9.20;;;2.67;;
75189;SDS011;69198;44.694;37.790;2023-05-07T01:25:43;5.72;;;2.05;;
75189;SDS011;69198;44.694;37.790;2023-05-07T01:26:45;6.80;;;2.53;;
75189;SDS011;69198;44.694;37.790;2023-05-07T01:27:49;7.20;;;2.72;;
75189;SDS011;69198;44.694;37.790;2023-05-07T01:28:50;7.05;;;2.50;;
75189;SDS011;69198;44.694;37.790;2023-05-07T01:29:51;8.90;;;3.05;;
75189;SDS011;69198;44.694;37.790;2023-05-07T01:30:53;6.43;;;2.63;;
75189;SDS011;69198;44.694;37.790;2023-05-07T01:31:57;8.48;;;2.70;;
75189;SDS011;69198;44.694;37.790;2023-05-07T01:33:01;6.10;;;2.33;;
75189;SDS011;69198;44.694;37.790;2023-05-07T01:34:07;7.20;;;3.07;;
75189;SDS011;69198;44.694;37.790;2023-05-07T01:35:11;10.00;;;3.20;;
75189;SDS011;69198;44.694;37.790;2023-05-07T01:36:14;6.72;;;2.72;;
75189;SDS011;69198;44.694;37.790;2023-05-07T01:37:15;7.35;;;2.47;;
75189;SDS011;69198;44.694;37.790;2023-05-07T01:38:17;6.93;;;2.40;;
75189;SDS011;69198;44.694;37.790;2023-05-07T01:39:19;5.82;;;2.42;;
75189;SDS011;69198;44.694;37.790;2023-05-07T01:40:20;7.00;;;3.33;;
75189;SDS011;69198;44.694;37.790;2023-05-07T01:41:22;8.45;;;2.72;;
75189;SDS011;69198;44.694;37.790;2023-05-07T01:42:23;7.72;;;2.90;;
75189;SDS011;69198;44.694;37.790;2023-05-07T01:43:24;10.05;;;3.20;;
75189;SDS011;69198;44.694;37.790;2023-05-07T01:44:25;9.60;;;3.60;;
75189;SDS011;69198;44.694;37.790;2023-05-07T01:45:27;9.70;;;3.30;;
75189;SDS011;69198;44.694;37.790;2023-05-07T01:46:28;7.63;;;2.92;;
75189;SDS011;69198;44.694;37.790;2023-05-07T01:47:31;7.85;;;2.60;;
75189;SDS011;69198;44.694;37.790;2023-05-07T01:48:33;10.30;;;3.40;;
75189;SDS011;69198;44.694;37.790;2023-05-07T01:49:35;8.57;;;3.10;;
75189;SDS011;69198;44.694;37.790;2023-05-07T01:50:37;9.07;;;3.47;;
75189;SDS011;69198;44.694;37.790;2023-05-07T01:51:39;7.53;;;3.20;;
75189;SDS011;69198;44.694;37.790;2023-05-07T01:52:40;8.32;;;3.45;;
75189;SDS011;69198;44.694;37.790;2023-05-07T01:53:42;9.02;;;3.05;;
75189;SDS011;69198;44.694;37.790;2023-05-07T01:54:44;8.13;;;2.93;;
75189;SDS011;69198;44.694;37.790;2023-05-07T01:55:45;10.55;;;3.70;;
75189;SDS011;69198;44.694;37.790;2023-05-07T01:56:46;7.47;;;2.95;;
75189;SDS011;69198;44.694;37.790;2023-05-07T01:57:49;8.85;;;3.22;;
75189;SDS011;69198;44.694;37.790;2023-05-07T01:58:50;7.72;;;3.17;;
75189;SDS011;69198;44.694;37.790;2023-05-07T01:59:52;8.23;;;3.08;;
75189;SDS011;69198;44.694;37.790;2023-05-07T02:00:53;9.80;;;3.03;;
75189;SDS011;69198;44.694;37.790;2023-05-07T02:01:54;8.70;;;3.15;;
75189;SDS011;69198;44.694;37.790;2023-05-07T02:02:55;9.50;;;3.30;;
75189;SDS011;69198;44.694;37.790;2023-05-07T02:04:11;8.85;;;3.20;;
75189;SDS011;69198;44.694;37.790;2023-05-07T02:05:12;10.13;;;2.80;;
75189;SDS011;69198;44.694;37.790;2023-05-07T02:06:14;11.32;;;3.10;;
75189;SDS011;69198;44.694;37.790;2023-05-07T02:07:15;7.50;;;2.55;;
75189;SDS011;69198;44.694;37.790;2023-05-07T02:08:16;8.23;;;2.70;;
75189;SDS011;69198;44.694;37.790;2023-05-07T02:09:18;6.60;;;2.70;;
75189;SDS011;69198;44.694;37.790;2023-05-07T02:10:20;7.35;;;3.00;;
75189;SDS011;69198;44.694;37.790;2023-05-07T02:11:20;7.97;;;3.25;;
75189;SDS011;69198;44.694;37.790;2023-05-07T02:12:22;9.97;;;3.40;;
75189;SDS011;69198;44.694;37.790;2023-05-07T02:13:23;7.95;;;2.75;;
75189;SDS011;69198;44.694;37.790;2023-05-07T02:14:26;8.35;;;3.05;;
75189;SDS011;69198;44.694;37.790;2023-05-07T02:15:27;8.82;;;2.55;;
75189;SDS011;69198;44.694;37.790;2023-05-07T02:16:28;10.85;;;3.40;;
75189;SDS011;69198;44.694;37.790;2023-05-07T02:17:29;8.45;;;3.20;;
75189;SDS011;69198;44.694;37.790;2023-05-07T02:18:32;6.85;;;2.78;;
75189;SDS011;69198;44.694;37.790;2023-05-07T02:19:34;7.85;;;3.50;;
75189;SDS011;69198;44.694;37.790;2023-05-07T02:20:35;9.30;;;3.17;;
75189;SDS011;69198;44.694;37.790;2023-05-07T02:21:36;7.30;;;3.07;;
75189;SDS011;69198;44.694;37.790;2023-05-07T02:22:37;8.93;;;3.00;;
75189;SDS011;69198;44.694;37.790;2023-05-07T02:23:38;7.97;;;2.83;;
75189;SDS011;69198;44.694;37.790;2023-05-07T02:24:40;9.23;;;3.17;;
75189;SDS011;69198;44.694;37.790;2023-05-07T02:25:41;10.55;;;3.28;;
75189;SDS011;69198;44.694;37.790;2023-05-07T02:26:42;6.85;;;2.67;;
75189;SDS011;69198;44.694;37.790;2023-05-07T02:27:43;8.15;;;3.13;;
75189;SDS011;69198;44.694;37.790;2023-05-07T02:28:45;8.20;;;2.97;;
75189;SDS011;69198;44.694;37.790;2023-05-07T02:29:46;8.70;;;3.00;;
75189;SDS011;69198;44.694;37.790;2023-05-07T02:30:47;9.32;;;3.95;;
75189;SDS011;69198;44.694;37.790;2023-05-07T02:31:48;7.32;;;3.25;;
75189;SDS011;69198;44.694;37.790;2023-05-07T02:32:53;9.77;;;3.33;;
75189;SDS011;69198;44.694;37.790;2023-05-07T02:33:54;8.38;;;3.50;;
75189;SDS011;69198;44.694;37.790;2023-05-07T02:34:55;8.27;;;3.40;;
75189;SDS011;69198;44.694;37.790;2023-05-07T02:35:56;7.28;;;3.53;;
75189;SDS011;69198;44.694;37.790;2023-05-07T02:36:57;10.50;;;4.10;;
75189;SDS011;69198;44.694;37.790;2023-05-07T02:38:00;9.13;;;3.60;;
75189;SDS011;69198;44.694;37.790;2023-05-07T02:39:01;7.65;;;3.20;;
75189;SDS011;69198;44.694;37.790;2023-05-07T02:40:03;8.63;;;3.40;;
75189;SDS011;69198;44.694;37.790;2023-05-07T02:41:05;10.40;;;3.05;;
75189;SDS011;69198;44.694;37.790;2023-05-07T02:42:06;8.85;;;3.33;;
75189;SDS011;69198;44.694;37.790;2023-05-07T02:43:07;10.95;;;4.00;;
75189;SDS011;69198;44.694;37.790;2023-05-07T02:44:09;9.98;;;3.97;;
75189;SDS011;69198;44.694;37.790;2023-05-07T02:45:11;9.68;;;4.75;;
75189;SDS011;69198;44.694;37.790;2023-05-07T02:46:12;10.05;;;3.75;;
75189;SDS011;69198;44.694;37.790;2023-05-07T02:47:18;9.60;;;3.28;;
75189;SDS011;69198;44.694;37.790;2023-05-07T02:48:19;7.40;;;3.47;;
75189;SDS011;69198;44.694;37.790;2023-05-07T02:49:20;7.72;;;3.05;;
75189;SDS011;69198;44.694;37.790;2023-05-07T02:50:21;7.82;;;3.17;;
75189;SDS011;69198;44.694;37.790;2023-05-07T02:51:23;8.98;;;3.30;;
75189;SDS011;69198;44.694;37.790;2023-05-07T02:52:25;10.45;;;3.50;;
75189;SDS011;69198;44.694;37.790;2023-05-07T02:53:26;7.85;;;3.40;;
75189;SDS011;69198;44.694;37.790;2023-05-07T02:54:27;7.82;;;3.25;;
75189;SDS011;69198;44.694;37.790;2023-05-07T02:55:28;9.38;;;2.97;;
75189;SDS011;69198;44.694;37.790;2023-05-07T02:56:29;10.75;;;3.47;;
75189;SDS011;69198;44.694;37.790;2023-05-07T02:57:30;7.90;;;3.20;;
75189;SDS011;69198;44.694;37.790;2023-05-07T02:58:31;7.47;;;2.58;;
75189;SDS011;69198;44.694;37.790;2023-05-07T02:59:34;9.32;;;2.97;;
75189;SDS011;69198;44.694;37.790;2023-05-07T03:00:36;9.18;;;3.80;;
75189;SDS011;69198;44.694;37.790;2023-05-07T03:01:55;7.22;;;3.15;;
75189;SDS011;69198;44.694;37.790;2023-05-07T03:02:57;6.72;;;2.85;;
75189;SDS011;69198;44.694;37.790;2023-05-07T03:03:58;7.65;;;3.28;;
75189;SDS011;69198;44.694;37.790;2023-05-07T03:04:59;10.90;;;3.30;;
75189;SDS011;69198;44.694;37.790;2023-05-07T03:06:00;8.90;;;3.20;;
75189;SDS011;69198;44.694;37.790;2023-05-07T03:07:01;8.32;;;3.03;;
75189;SDS011;69198;44.694;37.790;2023-05-07T03:08:02;8.20;;;3.10;;
75189;SDS011;69198;44.694;37.790;2023-05-07T03:09:04;7.22;;;2.90;;
75189;SDS011;69198;44.694;37.790;2023-05-07T03:10:05;11.05;;;3.35;;
75189;SDS011;69198;44.694;37.790;2023-05-07T03:11:06;8.55;;;3.45;;
75189;SDS011;69198;44.694;37.790;2023-05-07T03:12:07;8.40;;;2.85;;
75189;SDS011;69198;44.694;37.790;2023-05-07T03:13:08;7.53;;;2.78;;
75189;SDS011;69198;44.694;37.790;2023-05-07T03:14:10;8.98;;;3.03;;
75189;SDS011;69198;44.694;37.790;2023-05-07T03:15:10;7.67;;;2.97;;
75189;SDS011;69198;44.694;37.790;2023-05-07T03:16:13;9.65;;;2.65;;
75189;SDS011;69198;44.694;37.790;2023-05-07T03:17:14;8.95;;;3.80;;
75189;SDS011;69198;44.694;37.790;2023-05-07T03:18:16;9.10;;;3.38;;
75189;SDS011;69198;44.694;37.790;2023-05-07T03:19:17;8.25;;;3.15;;
75189;SDS011;69198;44.694;37.790;2023-05-07T03:20:18;9.52;;;3.70;;
75189;SDS011;69198;44.694;37.790;2023-05-07T03:21:19;8.00;;;3.40;;
75189;SDS011;69198;44.694;37.790;2023-05-07T03:22:20;9.10;;;3.53;;
75189;SDS011;69198;44.694;37.790;2023-05-07T03:23:21;7.63;;;3.67;;
75189;SDS011;69198;44.694;37.790;2023-05-07T03:24:22;10.00;;;4.10;;
75189;SDS011;69198;44.694;37.790;2023-05-07T03:25:23;9.75;;;3.70;;
75189;SDS011;69198;44.694;37.790;2023-05-07T03:26:24;8.60;;;3.58;;
75189;SDS011;69198;44.694;37.790;2023-05-07T03:27:25;11.00;;;5.53;;
75189;SDS011;69198;44.694;37.790;2023-05-07T03:28:28;12.18;;;4.75;;
75189;SDS011;69198;44.694;37.790;2023-05-07T03:29:33;10.20;;;4.90;;
75189;SDS011;69198;44.694;37.790;2023-05-07T03:30:34;11.40;;;5.03;;
75189;SDS011;69198;44.694;37.790;2023-05-07T03:31:35;10.43;;;5.00;;
75189;SDS011;69198;44.694;37.790;2023-05-07T03:32:36;9.75;;;3.83;;
75189;SDS011;69198;44.694;37.790;2023-05-07T03:33:53;10.10;;;3.55;;
75189;SDS011;69198;44.694;37.790;2023-05-07T03:34:58;11.70;;;4.50;;
75189;SDS011;69198;44.694;37.790;2023-05-07T03:35:59;11.35;;;4.20;;
75189;SDS011;69198;44.694;37.790;2023-05-07T03:37:00;11.57;;;4.35;;
75189;SDS011;69198;44.694;37.790;2023-05-07T03:38:01;9.75;;;4.40;;
75189;SDS011;69198;44.694;37.790;2023-05-07T03:39:05;8.93;;;4.20;;
75189;SDS011;69198;44.694;37.790;2023-05-07T03:40:12;9.15;;;4.55;;
75189;SDS011;69198;44.694;37.790;2023-05-07T03:41:22;9.35;;;4.47;;
75189;SDS011;69198;44.694;37.790;2023-05-07T03:42:23;9.32;;;4.72;;
75189;SDS011;69198;44.694;37.790;2023-05-07T03:43:26;10.48;;;4.78;;
75189;SDS011;69198;44.694;37.790;2023-05-07T03:44:34;12.00;;;5.32;;
75189;SDS011;69198;44.694;37.790;2023-05-07T03:45:37;7.50;;;2.75;;
75189;SDS011;69198;44.694;37.790;2023-05-07T03:46:48;8.23;;;3.63;;
75189;SDS011;69198;44.694;37.790;2023-05-07T03:47:50;8.77;;;4.30;;
75189;SDS011;69198;44.694;37.790;2023-05-07T03:48:53;8.65;;;4.00;;
75189;SDS011;69198;44.694;37.790;2023-05-07T03:49:55;11.50;;;4.40;;
75189;SDS011;69198;44.694;37.790;2023-05-07T03:50:58;11.52;;;5.30;;
75189;SDS011;69198;44.694;37.790;2023-05-07T03:52:03;10.27;;;4.15;;
75189;SDS011;69198;44.694;37.790;2023-05-07T03:53:05;8.85;;;4.40;;
75189;SDS011;69198;44.694;37.790;2023-05-07T03:54:11;8.30;;;3.80;;
75189;SDS011;69198;44.694;37.790;2023-05-07T03:55:17;7.68;;;3.60;;
75189;SDS011;69198;44.694;37.790;2023-05-07T03:56:23;7.57;;;3.38;;
75189;SDS011;69198;44.694;37.790;2023-05-07T03:57:28;7.53;;;3.88;;
75189;SDS011;69198;44.694;37.790;2023-05-07T03:58:31;11.60;;;4.28;;
75189;SDS011;69198;44.694;37.790;2023-05-07T03:59:36;11.10;;;3.65;;
75189;SDS011;69198;44.694;37.790;2023-05-07T04:00:37;9.47;;;4.23;;
75189;SDS011;69198;44.694;37.790;2023-05-07T04:01:50;9.27;;;4.40;;
75189;SDS011;69198;44.694;37.790;2023-05-07T04:02:54;10.15;;;4.32;;
75189;SDS011;69198;44.694;37.790;2023-05-07T04:04:00;10.77;;;4.55;;
75189;SDS011;69198;44.694;37.790;2023-05-07T04:05:01;10.45;;;4.57;;
75189;SDS011;69198;44.694;37.790;2023-05-07T04:06:02;11.63;;;4.70;;
75189;SDS011;69198;44.694;37.790;2023-05-07T04:07:05;10.32;;;5.30;;
75189;SDS011;69198;44.694;37.790;2023-05-07T04:08:11;10.27;;;4.35;;
75189;SDS011;69198;44.694;37.790;2023-05-07T04:09:15;10.20;;;5.22;;
75189;SDS011;69198;44.694;37.790;2023-05-07T04:10:16;9.20;;;5.07;;
75189;SDS011;69198;44.694;37.790;2023-05-07T04:11:19;7.93;;;4.30;;
75189;SDS011;69198;44.694;37.790;2023-05-07T04:12:21;11.98;;;5.18;;
75189;SDS011;69198;44.694;37.790;2023-05-07T04:13:24;10.05;;;4.55;;
75189;SDS011;69198;44.694;37.790;2023-05-07T04:14:25;10.95;;;5.22;;
75189;SDS011;69198;44.694;37.790;2023-05-07T04:15:26;7.57;;;4.22;;
75189;SDS011;69198;44.694;37.790;2023-05-07T04:16:27;9.38;;;4.68;;
75189;SDS011;69198;44.694;37.790;2023-05-07T04:17:28;8.35;;;4.28;;
75189;SDS011;69198;44.694;37.790;2023-05-07T04:18:29;11.88;;;4.85;;
75189;SDS011;69198;44.694;37.790;2023-05-07T04:19:30;11.77;;;5.60;;
75189;SDS011;69198;44.694;37.790;2023-05-07T04:20:34;11.20;;;4.78;;
75189;SDS011;69198;44.694;37.790;2023-05-07T04:21:38;11.73;;;6.50;;
75189;SDS011;69198;44.694;37.790;2023-05-07T04:22:40;10.50;;;5.38;;
75189;SDS011;69198;44.694;37.790;2023-05-07T04:23:41;12.35;;;5.80;;
75189;SDS011;69198;44.694;37.790;2023-05-07T04:24:45;12.63;;;5.03;;
75189;SDS011;69198;44.694;37.790;2023-05-07T04:25:47;11.70;;;6.45;;
75189;SDS011;69198;44.694;37.790;2023-05-07T04:27:03;10.32;;;5.90;;
75189;SDS011;69198;44.694;37.790;2023-05-07T04:28:04;10.70;;;5.85;;
75189;SDS011;69198;44.694;37.790;2023-05-07T04:29:05;11.35;;;5.70;;
75189;SDS011;69198;44.694;37.790;2023-05-07T04:30:07;14.53;;;6.20;;
75189;SDS011;69198;44.694;37.790;2023-05-07T04:31:12;11.75;;;5.10;;
75189;SDS011;69198;44.694;37.790;2023-05-07T04:32:14;11.43;;;5.38;;
75189;SDS011;69198;44.694;37.790;2023-05-07T04:33:15;11.65;;;5.68;;
75189;SDS011;69198;44.694;37.790;2023-05-07T04:34:18;11.93;;;6.25;;
75189;SDS011;69198;44.694;37.790;2023-05-07T04:35:19;12.50;;;5.90;;
75189;SDS011;69198;44.694;37.790;2023-05-07T04:36:20;14.57;;;5.40;;
75189;SDS011;69198;44.694;37.790;2023-05-07T04:37:27;11.38;;;5.38;;
75189;SDS011;69198;44.694;37.790;2023-05-07T04:38:31;10.23;;;5.38;;
75189;SDS011;69198;44.694;37.790;2023-05-07T04:39:34;10.90;;;5.50;;
75189;SDS011;69198;44.694;37.790;2023-05-07T04:40:36;12.15;;;5.97;;
75189;SDS011;69198;44.694;37.790;2023-05-07T04:41:38;12.02;;;6.13;;
75189;SDS011;69198;44.694;37.790;2023-05-07T04:42:41;13.05;;;6.07;;
75189;SDS011;69198;44.694;37.790;2023-05-07T04:43:42;13.45;;;5.82;;
75189;SDS011;69198;44.694;37.790;2023-05-07T04:44:45;9.30;;;3.83;;
75189;SDS011;69198;44.694;37.790;2023-05-07T04:45:46;10.18;;;5.80;;
75189;SDS011;69198;44.694;37.790;2023-05-07T04:46:49;11.30;;;5.68;;
75189;SDS011;69198;44.694;37.790;2023-05-07T04:47:50;11.50;;;5.32;;
75189;SDS011;69198;44.694;37.790;2023-05-07T04:48:52;10.82;;;5.82;;
75189;SDS011;69198;44.694;37.790;2023-05-07T04:49:53;10.50;;;4.80;;
75189;SDS011;69198;44.694;37.790;2023-05-07T04:50:54;11.95;;;5.28;;
75189;SDS011;69198;44.694;37.790;2023-05-07T04:51:55;12.77;;;5.57;;
75189;SDS011;69198;44.694;37.790;2023-05-07T04:52:57;9.85;;;5.35;;
75189;SDS011;69198;44.694;37.790;2023-05-07T04:53:58;10.40;;;5.60;;
75189;SDS011;69198;44.694;37.790;2023-05-07T04:55:02;9.45;;;4.93;;
75189;SDS011;69198;44.694;37.790;2023-05-07T04:56:08;9.60;;;4.72;;
75189;SDS011;69198;44.694;37.790;2023-05-07T04:57:14;9.48;;;4.72;;
75189;SDS011;69198;44.694;37.790;2023-05-07T04:58:17;8.95;;;4.72;;
75189;SDS011;69198;44.694;37.790;2023-05-07T04:59:21;12.02;;;4.78;;
75189;SDS011;69198;44.694;37.790;2023-05-07T05:00:23;9.57;;;5.40;;
75189;SDS011;69198;44.694;37.790;2023-05-07T05:01:27;9.57;;;4.55;;
75189;SDS011;69198;44.694;37.790;2023-05-07T05:02:29;9.43;;;4.70;;
75189;SDS011;69198;44.694;37.790;2023-05-07T05:03:30;7.72;;;3.83;;
75189;SDS011;69198;44.694;37.790;2023-05-07T05:04:31;9.77;;;4.32;;
75189;SDS011;69198;44.694;37.790;2023-05-07T05:05:32;9.63;;;4.10;;
75189;SDS011;69198;44.694;37.790;2023-05-07T05:06:34;7.70;;;3.55;;
75189;SDS011;69198;44.694;37.790;2023-05-07T05:07:38;9.07;;;4.18;;
75189;SDS011;69198;44.694;37.790;2023-05-07T05:08:39;14.35;;;4.75;;
75189;SDS011;69198;44.694;37.790;2023-05-07T05:09:40;8.88;;;4.38;;
75189;SDS011;69198;44.694;37.790;2023-05-07T05:10:42;9.80;;;5.03;;
75189;SDS011;69198;44.694;37.790;2023-05-07T05:11:44;10.07;;;4.68;;
75189;SDS011;69198;44.694;37.790;2023-05-07T05:12:45;8.23;;;4.00;;
75189;SDS011;69198;44.694;37.790;2023-05-07T05:13:46;7.82;;;4.03;;
75189;SDS011;69198;44.694;37.790;2023-05-07T05:14:53;9.55;;;4.35;;
75189;SDS011;69198;44.694;37.790;2023-05-07T05:15:54;9.32;;;4.10;;
75189;SDS011;69198;44.694;37.790;2023-05-07T05:16:56;8.82;;;4.38;;
75189;SDS011;69198;44.694;37.790;2023-05-07T05:17:57;9.20;;;4.72;;
75189;SDS011;69198;44.694;37.790;2023-05-07T05:18:59;14.38;;;4.45;;
75189;SDS011;69198;44.694;37.790;2023-05-07T05:20:00;10.73;;;4.83;;
75189;SDS011;69198;44.694;37.790;2023-05-07T05:21:01;8.38;;;3.70;;
75189;SDS011;69198;44.694;37.790;2023-05-07T05:22:02;9.13;;;4.05;;
75189;SDS011;69198;44.694;37.790;2023-05-07T05:23:04;7.20;;;3.35;;
75189;SDS011;69198;44.694;37.790;2023-05-07T05:24:07;8.32;;;3.38;;
75189;SDS011;69198;44.694;37.790;2023-05-07T05:25:08;7.55;;;3.33;;
75189;SDS011;69198;44.694;37.790;2023-05-07T05:26:09;9.65;;;3.17;;
75189;SDS011;69198;44.694;37.790;2023-05-07T05:27:10;8.88;;;4.18;;
75189;SDS011;69198;44.694;37.790;2023-05-07T05:28:11;7.00;;;2.72;;
75189;SDS011;69198;44.694;37.790;2023-05-07T05:29:13;6.10;;;2.60;;
75189;SDS011;69198;44.694;37.790;2023-05-07T05:30:16;8.48;;;2.60;;
75189;SDS011;69198;44.694;37.790;2023-05-07T05:31:19;6.43;;;2.55;;
75189;SDS011;69198;44.694;37.790;2023-05-07T05:32:23;7.65;;;2.72;;
75189;SDS011;69198;44.694;37.790;2023-05-07T05:33:28;6.13;;;2.78;;
75189;SDS011;69198;44.694;37.790;2023-05-07T05:34:36;6.80;;;2.88;;
75189;SDS011;69198;44.694;37.790;2023-05-07T05:35:39;8.35;;;2.42;;
75189;SDS011;69198;44.694;37.790;2023-05-07T05:36:45;6.07;;;2.25;;
75189;SDS011;69198;44.694;37.790;2023-05-07T05:37:48;8.40;;;2.92;;
75189;SDS011;69198;44.694;37.790;2023-05-07T05:38:51;7.45;;;2.60;;
75189;SDS011;69198;44.694;37.790;2023-05-07T05:39:52;10.13;;;3.40;;
75189;SDS011;69198;44.694;37.790;2023-05-07T05:40:55;8.00;;;2.70;;
75189;SDS011;69198;44.694;37.790;2023-05-07T05:41:57;7.13;;;2.90;;
75189;SDS011;69198;44.694;37.790;2023-05-07T05:42:58;7.55;;;3.17;;
75189;SDS011;69198;44.694;37.790;2023-05-07T05:43:59;7.82;;;2.50;;
75189;SDS011;69198;44.694;37.790;2023-05-07T05:45:00;7.20;;;2.72;;
75189;SDS011;69198;44.694;37.790;2023-05-07T05:46:04;5.95;;;2.35;;
75189;SDS011;69198;44.694;37.790;2023-05-07T05:47:07;7.32;;;2.25;;
75189;SDS011;69198;44.694;37.790;2023-05-07T05:48:08;7.35;;;2.70;;
75189;SDS011;69198;44.694;37.790;2023-05-07T05:49:09;9.17;;;2.20;;
75189;SDS011;69198;44.694;37.790;2023-05-07T05:50:11;7.55;;;2.83;;
75189;SDS011;69198;44.694;37.790;2023-05-07T05:51:12;7.07;;;2.90;;
75189;SDS011;69198;44.694;37.790;2023-05-07T05:52:13;6.68;;;2.72;;
75189;SDS011;69198;44.694;37.790;2023-05-07T05:53:14;5.88;;;2.72;;
75189;SDS011;69198;44.694;37.790;2023-05-07T05:54:16;7.68;;;2.70;;
75189;SDS011;69198;44.694;37.790;2023-05-07T05:55:17;7.07;;;2.42;;
75189;SDS011;69198;44.694;37.790;2023-05-07T05:56:18;5.95;;;2.35;;
75189;SDS011;69198;44.694;37.790;2023-05-07T05:57:20;6.85;;;2.55;;
75189;SDS011;69198;44.694;37.790;2023-05-07T05:58:21;6.67;;;2.67;;
75189;SDS011;69198;44.694;37.790;2023-05-07T05:59:29;7.65;;;3.30;;
75189;SDS011;69198;44.694;37.790;2023-05-07T06:00:31;10.05;;;3.40;;
75189;SDS011;69198;44.694;37.790;2023-05-07T06:01:37;7.28;;;3.03;;
75189;SDS011;69198;44.694;37.790;2023-05-07T06:02:39;9.65;;;3.15;;
75189;SDS011;69198;44.694;37.790;2023-05-07T06:03:41;9.55;;;3.75;;
75189;SDS011;69198;44.694;37.790;2023-05-07T06:04:47;8.05;;;2.90;;
75189;SDS011;69198;44.694;37.790;2023-05-07T06:05:51;8.63;;;3.47;;
75189;SDS011;69198;44.694;37.790;2023-05-07T06:06:55;10.65;;;3.20;;